createdAt,value
2018-05-04T00:00:24.091Z,12.44
2018-05-04T00:01:10.094Z,12.51
2018-05-04T00:06:10.911Z,12.46
2018-05-04T00:07:00.036Z,12.4
2018-05-04T00:07:48.399Z,12.43
2018-05-04T00:08:37.657Z,12.29
2018-05-04T00:09:26.088Z,12.33
2018-05-04T00:10:14.322Z,12.3
2018-05-04T00:11:03.197Z,12.22
2018-05-04T00:11:51.225Z,12.13
2018-05-04T00:12:39.541Z,12.13
2018-05-04T00:13:27.608Z,12.15
2018-05-04T00:14:15.160Z,12.19
2018-05-04T00:15:01.742Z,12.13
2018-05-04T00:15:41.771Z,12.33
2018-05-04T00:16:22.141Z,12.44
2018-05-04T00:17:02.546Z,12.48
2018-05-04T00:17:43.043Z,12.51
2018-05-04T00:18:23.481Z,12.48
2018-05-04T00:19:03.822Z,12.46
2018-05-04T00:19:44.314Z,12.51
2018-05-04T00:20:24.709Z,12.48
2018-05-04T00:21:05.100Z,12.55
2018-05-04T00:21:45.468Z,12.55
2018-05-04T00:22:25.826Z,12.55
2018-05-04T00:23:06.203Z,12.58
2018-05-04T00:23:46.626Z,12.62
2018-05-04T00:24:26.994Z,12.63
2018-05-04T00:25:07.423Z,12.63
2018-05-04T00:25:47.811Z,12.67
2018-05-04T00:26:28.204Z,12.66
2018-05-04T00:27:08.603Z,12.7
2018-05-04T00:27:49.033Z,12.62
2018-05-04T00:28:29.388Z,12.61
2018-05-04T00:29:09.817Z,12.61
2018-05-04T00:29:50.262Z,12.59
2018-05-04T00:30:30.661Z,12.62
2018-05-04T00:31:11.070Z,12.58
2018-05-04T00:31:51.402Z,12.54
2018-05-04T00:32:31.830Z,12.43
2018-05-04T00:33:12.280Z,12.46
2018-05-04T00:33:52.694Z,12.48
2018-05-04T00:34:33.083Z,12.44
2018-05-04T00:35:13.462Z,12.38
2018-05-04T00:35:53.865Z,12.38
2018-05-04T00:36:34.245Z,12.46
2018-05-04T00:37:14.681Z,12.34
2018-05-04T00:37:55.071Z,12.38
2018-05-04T00:38:35.434Z,12.34
2018-05-04T00:39:15.908Z,12.37
2018-05-04T00:41:04.949Z,12.3
2018-05-04T00:41:54.309Z,12.26
2018-05-04T00:42:42.557Z,12.37
2018-05-04T00:43:31.137Z,12.29
2018-05-04T00:44:20.042Z,12.33
2018-05-04T00:45:08.255Z,12.33
2018-05-04T00:45:56.549Z,12.37
2018-05-04T00:46:45.580Z,12.37
2018-05-04T00:48:42.298Z,12.29
2018-05-04T00:49:30.892Z,12.36
2018-05-04T00:50:19.624Z,12.33
2018-05-04T00:51:07.887Z,12.3
2018-05-04T00:51:56.377Z,12.18
2018-05-04T00:52:45.171Z,12.03
2018-05-04T00:53:33.737Z,12.12
2018-05-04T00:54:22.314Z,11.96
2018-05-04T00:55:11.228Z,11.98
2018-05-04T00:55:59.399Z,11.88
2018-05-04T00:56:47.772Z,11.84
2018-05-04T00:57:36.443Z,11.75
2018-05-04T00:58:25.103Z,11.75
2018-05-04T00:59:13.993Z,11.63
2018-05-04T01:00:02.235Z,11.67
2018-05-04T01:00:51.372Z,11.54
2018-05-04T01:01:40.123Z,11.57
2018-05-04T01:02:29.037Z,11.53
2018-05-04T01:03:17.234Z,11.45
2018-05-04T01:04:05.821Z,11.36
2018-05-04T01:04:54.368Z,11.27
2018-05-04T01:05:43.777Z,11.27
2018-05-04T01:06:32.405Z,11.27
2018-05-04T01:07:21.088Z,11.19
2018-05-04T01:08:09.267Z,11.17
2018-05-04T01:08:57.801Z,11.16
2018-05-04T01:09:46.338Z,11.21
2018-05-04T01:10:35.108Z,11.19
2018-05-04T01:11:24.148Z,11.21
2018-05-04T01:12:12.360Z,11.27
2018-05-04T01:13:00.724Z,11.21
2018-05-04T01:13:49.326Z,11.23
2018-05-04T01:14:38.111Z,11.27
2018-05-04T01:15:27.111Z,11.36
2018-05-04T01:16:15.151Z,11.33
2018-05-04T01:17:03.676Z,11.36
2018-05-04T01:17:51.842Z,11.36
2018-05-04T01:18:40.379Z,11.33
2018-05-04T01:19:28.847Z,11.33
2018-05-04T01:20:17.540Z,11.45
2018-05-04T01:21:05.718Z,11.49
2018-05-04T01:21:54.538Z,11.44
2018-05-04T01:22:42.890Z,11.38
2018-05-04T01:23:32.171Z,11.36
2018-05-04T01:24:19.601Z,11.28
2018-05-04T01:25:08.682Z,11.19
2018-05-04T01:25:57.260Z,11.23
2018-05-04T01:26:45.688Z,11.16
2018-05-04T01:27:32.997Z,11.06
2018-05-04T01:28:21.628Z,11.17
2018-05-04T01:29:10.308Z,11.16
2018-05-04T01:29:58.682Z,11.16
2018-05-04T01:30:47.528Z,11.2
2018-05-04T01:31:36.181Z,11.21
2018-05-04T01:32:24.975Z,11.23
2018-05-04T01:33:13.144Z,11.28
2018-05-04T01:34:02.194Z,11.27
2018-05-04T01:34:50.770Z,11.31
2018-05-04T01:35:39.188Z,11.35
2018-05-04T01:36:27.652Z,11.31
2018-05-04T01:37:16.487Z,11.21
2018-05-04T01:38:04.917Z,11.17
2018-05-04T01:38:54.105Z,11.26
2018-05-04T01:39:42.497Z,11.09
2018-05-04T01:40:30.780Z,11.08
2018-05-04T01:41:19.346Z,11.02
2018-05-04T01:42:08.231Z,10.91
2018-05-04T01:42:56.641Z,10.94
2018-05-04T01:43:45.549Z,10.84
2018-05-04T01:44:33.949Z,10.8
2018-05-04T01:45:22.302Z,10.72
2018-05-04T01:46:11.080Z,10.6
2018-05-04T01:46:59.343Z,10.57
2018-05-04T01:47:47.891Z,10.47
2018-05-04T01:48:36.393Z,10.43
2018-05-04T01:49:25.097Z,10.55
2018-05-04T01:50:14.051Z,10.46
2018-05-04T01:51:02.092Z,10.42
2018-05-04T01:51:51.155Z,10.47
2018-05-04T01:52:39.752Z,10.49
2018-05-04T01:53:28.074Z,10.42
2018-05-04T01:54:16.588Z,10.42
2018-05-04T01:55:05.323Z,10.46
2018-05-04T01:55:54.147Z,10.44
2018-05-04T01:56:42.403Z,10.49
2018-05-04T01:57:31.155Z,10.32
2018-05-04T01:58:19.537Z,10.36
2018-05-04T01:59:07.825Z,10.32
2018-05-04T01:59:56.625Z,10.31
2018-05-04T02:00:45.269Z,10.34
2018-05-04T02:01:33.495Z,10.31
2018-05-04T02:02:22.531Z,10.24
2018-05-04T02:03:11.205Z,10.25
2018-05-04T02:03:59.371Z,10.2
2018-05-04T02:04:48.167Z,10.18
2018-05-04T02:06:39.126Z,10.18
2018-05-04T02:07:27.574Z,10.13
2018-05-04T02:08:15.954Z,10.07
2018-05-04T02:09:04.574Z,10.16
2018-05-04T02:09:53.350Z,10.22
2018-05-04T02:10:41.998Z,10.26
2018-05-04T02:11:30.052Z,10.35
2018-05-04T02:12:18.654Z,10.34
2018-05-04T02:13:07.149Z,10.29
2018-05-04T02:13:55.687Z,10.35
2018-05-04T02:14:44.439Z,10.43
2018-05-04T02:15:32.946Z,10.28
2018-05-04T02:16:21.649Z,10.31
2018-05-04T02:17:10.101Z,10.31
2018-05-04T02:17:58.977Z,10.31
2018-05-04T02:18:47.096Z,10.32
2018-05-04T02:19:35.615Z,10.28
2018-05-04T02:20:24.207Z,10.28
2018-05-04T02:21:12.723Z,10.28
2018-05-04T02:22:01.337Z,10.28
2018-05-04T02:22:49.975Z,10.24
2018-05-04T02:23:38.321Z,10.2
2018-05-04T02:24:27.004Z,10.24
2018-05-04T02:25:16.009Z,10.26
2018-05-04T02:26:04.354Z,10.32
2018-05-04T02:26:52.615Z,10.39
2018-05-04T02:27:40.861Z,10.42
2018-05-04T02:28:30.060Z,10.34
2018-05-04T02:29:18.536Z,10.47
2018-05-04T02:30:06.500Z,10.46
2018-05-04T02:30:55.301Z,10.47
2018-05-04T02:31:44.363Z,10.49
2018-05-04T02:32:32.749Z,10.38
2018-05-04T02:33:20.977Z,10.36
2018-05-04T02:34:10.089Z,10.35
2018-05-04T02:34:58.203Z,10.39
2018-05-04T02:35:46.938Z,10.47
2018-05-04T02:36:35.514Z,10.43
2018-05-04T02:37:23.821Z,10.46
2018-05-04T02:38:12.500Z,10.44
2018-05-04T02:39:01.357Z,10.39
2018-05-04T02:39:49.559Z,10.44
2018-05-04T02:40:38.439Z,10.43
2018-05-04T02:41:26.584Z,10.51
2018-05-04T02:42:15.186Z,10.46
2018-05-04T02:43:04.084Z,10.49
2018-05-04T02:43:52.324Z,10.47
2018-05-04T02:44:40.974Z,10.54
2018-05-04T02:45:29.425Z,10.58
2018-05-04T02:46:17.949Z,10.6
2018-05-04T02:47:06.368Z,10.62
2018-05-04T02:47:54.962Z,10.7
2018-05-04T02:48:43.608Z,10.73
2018-05-04T02:49:32.056Z,10.69
2018-05-04T02:50:20.039Z,10.68
2018-05-04T02:51:08.051Z,10.63
2018-05-04T02:51:56.347Z,10.58
2018-05-04T02:52:45.170Z,10.69
2018-05-04T02:53:33.624Z,10.66
2018-05-04T02:54:22.064Z,10.68
2018-05-04T02:55:10.638Z,10.65
2018-05-04T02:55:56.987Z,10.68
2018-05-04T02:56:37.315Z,10.69
2018-05-04T02:57:17.753Z,10.68
2018-05-04T02:57:58.170Z,10.7
2018-05-04T02:58:38.558Z,10.65
2018-05-04T02:59:18.988Z,10.73
2018-05-04T02:59:59.339Z,10.62
2018-05-04T03:00:39.753Z,10.57
2018-05-04T03:01:20.177Z,10.6
2018-05-04T03:02:00.575Z,10.49
2018-05-04T03:02:40.984Z,10.47
2018-05-04T03:03:21.386Z,10.42
2018-05-04T03:04:01.794Z,10.39
2018-05-04T03:04:42.208Z,10.32
2018-05-04T03:05:22.646Z,10.35
2018-05-04T03:06:03.097Z,10.32
2018-05-04T03:06:43.445Z,10.26
2018-05-04T03:07:23.812Z,10.32
2018-05-04T03:08:04.217Z,10.32
2018-05-04T03:08:44.658Z,10.35
2018-05-04T03:09:25.092Z,10.38
2018-05-04T03:10:05.528Z,10.38
2018-05-04T03:10:45.877Z,10.49
2018-05-04T03:11:26.320Z,10.49
2018-05-04T03:12:06.725Z,10.46
2018-05-04T03:12:47.140Z,10.43
2018-05-04T03:13:27.600Z,10.47
2018-05-04T03:14:07.958Z,10.42
2018-05-04T03:14:48.381Z,10.35
2018-05-04T03:15:28.744Z,10.32
2018-05-04T03:16:09.183Z,10.25
2018-05-04T03:16:49.582Z,10.24
2018-05-04T03:17:30.068Z,10.1
2018-05-04T03:18:10.472Z,10.04
2018-05-04T03:18:50.845Z,9.93
2018-05-04T03:19:31.207Z,9.91
2018-05-04T03:20:11.576Z,9.98
2018-05-04T03:20:52.004Z,9.85
2018-05-04T03:21:32.365Z,9.86
2018-05-04T03:22:12.799Z,9.91
2018-05-04T03:22:53.255Z,9.75
2018-05-04T03:23:33.690Z,9.75
2018-05-04T03:24:14.116Z,9.86
2018-05-04T03:24:54.571Z,9.89
2018-05-04T03:25:34.924Z,9.91
2018-05-04T03:26:15.724Z,9.98
2018-05-04T03:26:56.799Z,9.92
2018-05-04T03:27:38.009Z,9.98
2018-05-04T03:28:21.684Z,10.01
2018-05-04T03:29:02.960Z,10.09
2018-05-04T03:29:44.134Z,9.98
2018-05-04T03:30:24.938Z,9.91
2018-05-04T03:31:05.619Z,9.85
2018-05-04T03:31:47.135Z,9.88
2018-05-04T03:32:28.010Z,9.77
2018-05-04T03:33:08.860Z,9.75
2018-05-04T03:33:49.977Z,9.63
2018-05-04T03:34:32.600Z,9.56
2018-05-04T03:35:14.857Z,9.53
2018-05-04T03:35:56.438Z,9.42
2018-05-04T03:36:37.570Z,9.42
2018-05-04T03:37:17.855Z,9.34
2018-05-04T03:38:00.780Z,9.38
2018-05-04T03:38:41.708Z,9.35
2018-05-04T03:39:22.220Z,9.3
2018-05-04T03:40:04.105Z,9.31
2018-05-04T03:40:45.118Z,9.32
2018-05-04T03:41:26.596Z,9.12
2018-05-04T03:42:07.436Z,9.19
2018-05-04T03:42:48.527Z,9.22
2018-05-04T03:43:30.296Z,9.23
2018-05-04T03:44:11.630Z,9.06
2018-05-04T03:44:52.556Z,9.08
2018-05-04T03:45:34.943Z,9.13
2018-05-04T03:46:15.868Z,9.12
2018-05-04T03:46:56.580Z,9.04
2018-05-04T03:47:37.498Z,9.06
2018-05-04T03:48:18.358Z,8.89
2018-05-04T03:48:59.215Z,8.98
2018-05-04T03:49:40.432Z,8.96
2018-05-04T03:50:21.682Z,8.93
2018-05-04T03:51:02.216Z,8.91
2018-05-04T03:51:42.880Z,8.93
2018-05-04T03:52:23.575Z,8.78
2018-05-04T03:53:04.070Z,8.83
2018-05-04T03:53:44.576Z,8.76
2018-05-04T03:54:25.011Z,8.79
2018-05-04T03:55:05.648Z,8.75
2018-05-04T03:55:46.269Z,8.79
2018-05-04T03:56:27.801Z,8.78
2018-05-04T03:57:08.398Z,8.73
2018-05-04T03:57:48.940Z,8.73
2018-05-04T03:58:29.869Z,8.7
2018-05-04T03:59:10.665Z,8.71
2018-05-04T03:59:51.048Z,8.64
2018-05-04T04:00:31.635Z,8.71
2018-05-04T04:01:12.091Z,8.65
2018-05-04T04:01:52.866Z,8.64
2018-05-04T04:02:33.558Z,8.64
2018-05-04T04:03:14.023Z,8.67
2018-05-04T04:41:06.438Z,10.47
2018-05-04T04:41:46.794Z,10.44
2018-05-04T04:42:27.174Z,10.52
2018-05-04T04:43:07.560Z,10.46
2018-05-04T04:43:47.991Z,10.46
2018-05-04T04:44:28.356Z,10.55
2018-05-04T04:45:08.779Z,10.54
2018-05-04T04:45:49.143Z,10.66
2018-05-04T04:46:29.575Z,10.7
2018-05-04T04:47:09.963Z,10.87
2018-05-04T04:47:50.361Z,10.98
2018-05-04T04:48:30.719Z,11.13
2018-05-04T04:49:11.128Z,11.16
2018-05-04T04:49:51.554Z,11.26
2018-05-04T04:52:04.536Z,11.66
2018-05-04T04:53:52.462Z,11.96
2018-05-04T04:54:32.771Z,12.03
2018-05-04T04:55:13.192Z,12.15
2018-05-04T04:55:53.560Z,12.21
2018-05-04T04:56:33.988Z,12.36
2018-05-04T05:02:25.505Z,13.59
2018-05-04T05:03:05.946Z,13.87
2018-05-04T05:03:46.438Z,13.93
2018-05-04T05:07:02.590Z,14.71
2018-05-04T05:07:42.991Z,14.91
2018-05-04T05:08:23.395Z,15.01
2018-05-04T05:09:03.880Z,15.19
2018-05-04T05:09:44.326Z,15.23
2018-05-04T05:10:24.720Z,15.34
2018-05-04T05:11:05.254Z,15.4
2018-05-04T05:11:45.660Z,15.59
2018-05-04T05:12:26.070Z,15.84
2018-05-04T05:13:06.468Z,15.96
2018-05-04T05:13:46.862Z,16.08
2018-05-04T05:14:27.236Z,16.11
2018-05-04T05:15:07.656Z,16.23
2018-05-04T05:15:48.065Z,16.34
2018-05-04T05:22:58.448Z,17.92
2018-05-04T05:23:38.918Z,18.2
2018-05-04T05:24:19.214Z,18.28
2018-05-04T05:24:59.652Z,18.31
2018-05-04T05:26:10.018Z,18.65
2018-05-04T05:26:50.392Z,18.83
2018-05-04T05:27:30.827Z,18.93
2018-05-04T05:28:11.279Z,18.99
2018-05-04T05:28:51.661Z,19.09
2018-05-04T05:29:32.152Z,19.24
2018-05-04T05:30:12.469Z,19.31
2018-05-04T05:30:52.903Z,19.31
2018-05-04T05:31:33.364Z,19.43
2018-05-04T05:32:13.772Z,19.46
2018-05-04T05:32:54.214Z,19.61
2018-05-04T05:33:34.663Z,19.5
2018-05-04T05:34:15.062Z,19.57
2018-05-04T05:34:55.521Z,19.68
2018-05-04T05:35:35.959Z,19.7
2018-05-04T05:37:48.881Z,19.94
2018-05-04T05:38:29.253Z,20.1
2018-05-04T05:40:17.033Z,20.6
2018-05-04T05:46:05.727Z,21.26
2018-05-04T05:46:46.040Z,21.33
2018-05-04T05:47:27.055Z,21.3
2018-05-04T05:48:07.231Z,21.15
2018-05-04T05:48:47.776Z,21.3
2018-05-04T05:49:28.327Z,21.52
2018-05-04T05:50:08.975Z,21.59
2018-05-04T05:50:49.787Z,21.53
2018-05-04T05:51:30.314Z,21.51
2018-05-04T05:52:10.777Z,21.61
2018-05-04T05:52:51.294Z,21.66
2018-05-04T05:53:31.621Z,21.85
2018-05-04T05:54:12.283Z,21.75
2018-05-04T05:54:53.508Z,21.91
2018-05-04T05:55:33.332Z,21.98
2018-05-04T05:56:13.665Z,22.11
2018-05-04T05:56:54.075Z,22.27
2018-05-04T05:57:34.522Z,22.33
2018-05-04T05:58:14.997Z,22.21
2018-05-04T05:58:55.613Z,22.42
2018-05-04T05:59:35.876Z,22.66
2018-05-04T06:00:16.626Z,22.75
2018-05-04T06:00:57.176Z,22.91
2018-05-04T06:01:37.648Z,22.89
2018-05-04T06:02:18.058Z,23.14
2018-05-04T06:02:58.615Z,23.25
2018-05-04T06:03:39.029Z,23.38
2018-05-04T06:04:19.491Z,23.42
2018-05-04T06:05:00.525Z,23.54
2018-05-04T06:05:40.580Z,23.68
2018-05-04T06:06:21.244Z,23.79
2018-05-04T06:07:01.660Z,23.89
2018-05-04T06:07:42.312Z,23.96
2018-05-04T06:08:22.673Z,24.11
2018-05-04T06:09:04.037Z,24.11
2018-05-04T06:09:43.877Z,24.11
2018-05-04T06:10:24.287Z,24.21
2018-05-04T06:11:04.726Z,24.23
2018-05-04T06:11:45.119Z,24.09
2018-05-04T06:12:25.571Z,24.19
2018-05-04T06:13:05.936Z,24.26
2018-05-04T06:13:46.388Z,24.3
2018-05-04T06:14:26.801Z,24.23
2018-05-04T06:15:07.291Z,24.24
2018-05-04T06:15:47.625Z,24.31
2018-05-04T06:16:28.033Z,24.36
2018-05-04T06:17:08.598Z,24.46
2018-05-04T06:17:49.088Z,24.55
2018-05-04T06:18:30.549Z,24.68
2018-05-04T06:19:10.207Z,24.83
2018-05-04T06:19:50.633Z,24.89
2018-05-04T06:20:31.101Z,24.98
2018-05-04T06:21:12.528Z,25.07
2018-05-04T06:21:52.243Z,25.19
2018-05-04T06:22:32.696Z,25.31
2018-05-04T06:23:14.065Z,25.39
2018-05-04T06:23:53.795Z,25.36
2018-05-04T06:24:34.556Z,25.42
2018-05-04T06:25:15.101Z,25.38
2018-05-04T06:25:55.536Z,25.36
2018-05-04T06:26:35.965Z,25.38
2018-05-04T06:27:16.421Z,25.27
2018-05-04T06:27:56.910Z,25.05
2018-05-04T06:28:37.389Z,25.11
2018-05-04T06:29:17.867Z,25.08
2018-05-04T06:29:58.408Z,24.83
2018-05-04T06:30:38.864Z,24.64
2018-05-04T06:40:35.730Z,24.7
2018-05-04T06:41:16.171Z,24.71
2018-05-04T06:41:56.666Z,24.61
2018-05-04T06:42:37.106Z,24.59
2018-05-04T06:43:17.600Z,24.46
2018-05-04T06:46:58.901Z,24.41
2018-05-04T06:48:30.531Z,24.46
2018-05-04T06:50:24.590Z,24.3
2018-05-04T06:56:41.211Z,24.44
2018-05-04T07:01:54.712Z,24.36
2018-05-04T07:02:34.781Z,24.33
2018-05-04T07:03:15.238Z,24.23
2018-05-04T07:03:55.717Z,24.29
2018-05-04T07:04:36.795Z,24.34
2018-05-04T07:05:18.538Z,24.12
2018-05-04T07:06:00.748Z,24.15
2018-05-04T07:06:40.993Z,24.15
2018-05-04T07:07:21.555Z,23.96
2018-05-04T07:08:02.191Z,24.02
2018-05-04T07:10:20.809Z,24.06
2018-05-04T07:17:09.909Z,24.15
2018-05-04T07:22:33.316Z,23.97
2018-05-04T07:24:20.163Z,24.09
2018-05-04T07:30:16.681Z,24.48
2018-05-04T07:33:53.646Z,24.84
2018-05-04T07:34:48.332Z,24.9
2018-05-04T07:37:02.557Z,25.36
2018-05-04T07:55:00.725Z,25.07
2018-05-04T07:55:54.170Z,24.83
2018-05-04T07:56:35.963Z,24.59
2018-05-04T08:02:37.780Z,24.97
2018-05-04T08:08:25.406Z,25.69
2018-05-04T08:19:14.801Z,25.49
2018-05-04T08:24:12.685Z,25.82
2018-05-04T08:39:51.379Z,26.39
2018-05-04T08:43:12.238Z,26.65
2018-05-04T08:50:01.967Z,27.11
2018-05-04T08:57:27.230Z,26.16
2018-05-04T08:58:17.303Z,25.38
2018-05-04T09:03:23.275Z,25.3
2018-05-04T09:08:22.359Z,25.29
2018-05-04T09:50:18.863Z,29.54
2018-05-04T09:51:03.811Z,29.35
2018-05-04T10:44:42.571Z,27.78
2018-05-04T10:53:52.996Z,29.07
2018-05-04T10:56:02.349Z,27.27
2018-05-04T10:56:40.759Z,27.27
2018-05-04T10:57:22.355Z,27.11
2018-05-04T10:58:03.349Z,27.2
2018-05-04T10:58:43.543Z,27.28
2018-05-04T10:59:24.269Z,27.4
2018-05-04T11:00:06.087Z,27.55
2018-05-04T11:00:48.017Z,27.65
2018-05-04T11:01:28.832Z,27.42
2018-05-04T11:02:09.281Z,26.59
2018-05-04T11:02:49.735Z,25.75
2018-05-04T11:03:30.118Z,25.42
2018-05-04T11:04:10.525Z,25.49
2018-05-04T11:04:51.177Z,25.63
2018-05-04T11:05:32.559Z,25.93
2018-05-04T11:06:13.313Z,26.19
2018-05-04T11:06:53.826Z,26.54
2018-05-04T11:07:34.213Z,26.69
2018-05-04T11:08:15.663Z,26.6
2018-05-04T11:08:56.276Z,26.54
2018-05-04T11:09:36.820Z,26.56
2018-05-04T11:10:17.694Z,26.5
2018-05-04T11:10:58.417Z,26.65
2018-05-04T11:11:40.058Z,26.84
2018-05-04T11:12:20.859Z,26.94
2018-05-04T11:13:04.005Z,27.34
2018-05-04T11:13:47.119Z,27.58
2018-05-04T11:14:27.589Z,27.91
2018-05-04T11:15:08.959Z,28.28
2018-05-04T11:15:49.669Z,28.43
2018-05-04T11:16:30.194Z,28.62
2018-05-04T11:17:10.635Z,28.87
2018-05-04T11:17:51.068Z,28.95
2018-05-04T11:18:31.585Z,28.98
2018-05-04T11:19:12.035Z,28.55
2018-05-04T11:19:53.421Z,28.11
2018-05-04T11:20:33.797Z,27.98
2018-05-04T11:21:14.677Z,27.96
2018-05-04T11:21:56.256Z,27.93
2018-05-04T11:22:37.102Z,27.95
2018-05-04T11:23:17.644Z,28.05
2018-05-04T11:23:59.492Z,28.15
2018-05-04T11:24:40.140Z,28.2
2018-05-04T11:25:20.897Z,28.45
2018-05-04T11:27:27.614Z,28.91
2018-05-04T11:28:10.033Z,29.02
2018-05-04T11:28:52.168Z,29.32
2018-05-04T11:29:33.452Z,29.44
2018-05-04T11:30:14.304Z,29.48
2018-05-04T11:30:55.053Z,29.58
2018-05-04T11:31:36.199Z,29.67
2018-05-04T11:32:16.615Z,29.76
2018-05-04T11:32:57.254Z,29.84
2018-05-04T11:33:37.861Z,29.7
2018-05-04T11:34:18.310Z,29.67
2018-05-04T11:34:58.817Z,29.79
2018-05-04T11:35:39.202Z,29.91
2018-05-04T11:36:20.338Z,30.01
2018-05-04T11:37:03.027Z,30.23
2018-05-04T11:37:43.440Z,30.32
2018-05-04T11:38:23.925Z,30.57
2018-05-04T11:39:04.483Z,30.72
2018-05-04T11:39:45.183Z,30.86
2018-05-04T11:55:02.927Z,30.21
2018-05-04T11:55:43.229Z,30.01
2018-05-04T11:56:23.707Z,29.94
2018-05-04T11:57:04.543Z,29.23
2018-05-04T11:57:44.826Z,28.62
2018-05-04T11:58:25.305Z,28.25
2018-05-04T11:59:05.764Z,28.05
2018-05-04T11:59:46.096Z,28.14
2018-05-04T12:00:29.396Z,28.17
2018-05-04T12:01:09.768Z,28.28
2018-05-04T12:01:50.232Z,28.33
2018-05-04T12:02:31.315Z,28.4
2018-05-04T12:03:17.099Z,28.67
2018-05-04T12:04:02.949Z,29
2018-05-04T12:04:46.979Z,29.05
2018-05-04T12:05:27.493Z,29.18
2018-05-04T12:06:07.775Z,29.35
2018-05-04T12:06:48.163Z,29.48
2018-05-04T12:07:29.401Z,29.49
2018-05-04T12:08:11.411Z,29.7
2018-05-04T12:08:51.758Z,29.71
2018-05-04T12:09:34.602Z,29.62
2018-05-04T12:10:14.424Z,29.69
2018-05-04T12:10:54.957Z,29.7
2018-05-04T12:11:38.506Z,29.6
2018-05-04T12:12:19.148Z,29.79
2018-05-04T12:59:50.700Z,30.67
2018-05-04T13:00:32.228Z,30.63
2018-05-04T13:01:12.581Z,30.66
2018-05-04T13:01:53.013Z,30.56
2018-05-04T13:02:33.561Z,30.57
2018-05-04T13:03:13.902Z,30.64
2018-05-04T13:03:54.514Z,30.75
2018-05-04T13:04:34.886Z,30.72
2018-05-04T13:05:15.230Z,30.73
2018-05-04T13:05:55.669Z,30.82
2018-05-04T13:06:36.150Z,30.81
2018-05-04T13:07:16.534Z,30.88
2018-05-04T13:07:57.015Z,30.91
2018-05-04T13:08:38.034Z,31.01
2018-05-04T13:09:18.456Z,30.85
2018-05-04T13:10:00.463Z,30.82
2018-05-04T13:10:40.948Z,30.78
2018-05-04T13:11:21.396Z,30.73
2018-05-04T13:12:02.067Z,30.76
2018-05-04T13:12:43.140Z,30.63
2018-05-04T13:13:23.656Z,30.7
2018-05-04T13:14:04.994Z,30.72
2018-05-04T13:14:45.277Z,30.78
2018-05-04T13:15:25.683Z,30.75
2018-05-04T13:16:06.275Z,30.85
2018-05-04T13:16:47.193Z,30.82
2018-05-04T13:17:27.683Z,30.9
2018-05-04T13:18:08.088Z,30.86
2018-05-04T13:18:48.522Z,30.85
2018-05-04T13:19:28.967Z,30.76
2018-05-04T13:20:09.405Z,30.64
2018-05-04T13:20:49.915Z,30.61
2018-05-04T13:21:30.832Z,30.29
2018-05-04T13:22:11.320Z,30.28
2018-05-04T13:22:51.966Z,30.15
2018-05-04T13:23:32.274Z,30.04
2018-05-04T13:24:12.746Z,30.07
2018-05-04T13:24:53.848Z,30.15
2018-05-04T13:25:34.416Z,30.19
2018-05-04T13:26:14.919Z,30.28
2018-05-04T13:26:55.468Z,30.38
2018-05-04T13:27:36.000Z,30.22
2018-05-04T13:28:17.869Z,30.32
2018-05-04T13:28:58.490Z,30.28
2018-05-04T13:29:38.917Z,30.3
2018-05-04T13:30:20.727Z,30.25
2018-05-04T13:31:01.118Z,30.32
2018-05-04T13:31:41.700Z,30.19
2018-05-04T13:32:22.192Z,30.19
2018-05-04T13:33:02.582Z,30.04
2018-05-04T13:33:43.037Z,29.94
2018-05-04T13:34:23.496Z,29.94
2018-05-04T13:35:03.923Z,29.99
2018-05-04T13:35:44.378Z,29.86
2018-05-04T13:36:25.066Z,29.33
2018-05-04T13:37:05.591Z,29.26
2018-05-04T13:37:46.511Z,29.3
2018-05-04T13:38:26.814Z,29.35
2018-05-04T13:39:07.503Z,29.35
2018-05-04T13:39:47.914Z,29.32
2018-05-04T13:40:28.484Z,29.55
2018-05-04T13:41:08.827Z,29.48
2018-05-04T13:41:49.206Z,29.48
2018-05-04T13:42:29.624Z,29.47
2018-05-04T13:43:10.317Z,29.51
2018-05-04T13:43:50.681Z,29.62
2018-05-04T13:44:31.285Z,29.58
2018-05-04T13:45:11.742Z,29.63
2018-05-04T13:45:52.430Z,29.74
2018-05-04T13:46:33.624Z,29.64
2018-05-04T13:47:13.945Z,29.49
2018-05-04T13:47:54.511Z,29.48
2018-05-04T13:48:35.395Z,29.48
2018-05-04T13:49:15.879Z,29.54
2018-05-04T13:49:56.188Z,29.54
2018-05-04T13:50:36.939Z,29.45
2018-05-04T13:51:17.294Z,29.57
2018-05-04T13:51:58.205Z,29.49
2018-05-04T13:52:38.768Z,29.63
2018-05-04T13:53:19.282Z,29.73
2018-05-04T13:54:00.127Z,29.84
2018-05-04T13:54:40.793Z,29.82
2018-05-04T13:55:21.352Z,29.81
2018-05-04T13:56:02.258Z,29.7
2018-05-04T13:56:42.739Z,29.58
2018-05-04T13:57:23.563Z,29.33
2018-05-04T13:58:04.843Z,29.2
2018-05-04T13:58:44.385Z,28.95
2018-05-04T13:59:24.819Z,28.88
2018-05-04T14:00:05.853Z,28.79
2018-05-04T14:00:46.406Z,28.8
2018-05-04T14:01:27.111Z,28.94
2018-05-04T14:02:07.445Z,28.87
2018-05-04T14:02:47.893Z,28.85
2018-05-04T14:03:28.628Z,28.85
2018-05-04T14:04:09.167Z,28.98
2018-05-04T14:04:51.249Z,28.89
2018-05-04T14:05:31.977Z,29.05
2018-05-04T14:06:12.601Z,29.08
2018-05-04T14:06:53.727Z,29.23
2018-05-04T14:07:33.570Z,29.15
2018-05-04T14:08:14.866Z,29.15
2018-05-04T14:08:56.017Z,29.29
2018-05-04T14:09:37.562Z,29.32
2018-05-04T14:10:17.937Z,29.39
2018-05-04T14:10:58.460Z,29.51
2018-05-04T14:11:39.521Z,29.55
2018-05-04T14:12:19.985Z,29.63
2018-05-04T14:13:00.448Z,29.66
2018-05-04T14:13:41.240Z,29.48
2018-05-04T14:14:21.673Z,29.48
2018-05-04T14:15:02.150Z,29.35
2018-05-04T14:15:42.833Z,29.17
2018-05-04T14:16:23.561Z,28.97
2018-05-04T14:17:04.651Z,28.97
2018-05-04T14:17:45.042Z,28.94
2018-05-04T14:18:26.458Z,28.94
2018-05-04T14:19:06.352Z,29.02
2018-05-04T14:19:47.299Z,29.08
2018-05-04T14:20:27.870Z,29.08
2018-05-04T14:35:49.559Z,28.2
2018-05-04T14:36:30.652Z,28.15
2018-05-04T14:37:11.725Z,28.03
2018-05-04T14:37:52.307Z,28.08
2018-05-04T14:38:32.771Z,28.06
2018-05-04T14:39:13.402Z,28.02
2018-05-04T14:39:53.978Z,27.98
2018-05-04T14:40:34.373Z,27.84
2018-05-04T14:41:15.160Z,27.86
2018-05-04T14:41:55.783Z,27.84
2018-05-04T14:42:36.636Z,27.74
2018-05-04T14:43:17.179Z,27.71
2018-05-04T14:43:58.323Z,27.62
2018-05-04T14:44:39.239Z,27.59
2018-05-04T14:45:19.626Z,27.55
2018-05-04T14:46:00.138Z,27.45
2018-05-04T14:46:41.225Z,27.38
2018-05-04T14:47:22.118Z,27.38
2018-05-04T14:48:02.536Z,27.49
2018-05-04T14:48:44.941Z,27.48
2018-05-04T14:49:25.861Z,27.55
2018-05-04T14:50:06.469Z,27.63
2018-05-04T14:50:47.655Z,27.62
2018-05-04T14:51:28.294Z,27.8
2018-05-04T14:52:08.608Z,27.76
2018-05-04T14:52:49.271Z,27.68
2018-05-04T14:53:29.602Z,27.58
2018-05-04T14:54:10.061Z,27.48
2018-05-04T14:54:50.703Z,27.25
2018-05-04T14:55:31.216Z,27.12
2018-05-04T14:56:11.820Z,26.98
2018-05-04T14:56:52.359Z,26.81
2018-05-04T14:57:32.605Z,26.86
2018-05-04T14:58:13.014Z,26.64
2018-05-04T14:58:53.497Z,26.61
2018-05-04T15:04:18.045Z,26.47
2018-05-04T15:05:05.151Z,26.47
2018-05-04T15:05:45.564Z,26.46
2018-05-04T15:06:26.843Z,26.54
2018-05-04T15:07:06.944Z,26.46
2018-05-04T15:07:47.520Z,26.54
2018-05-04T15:08:28.092Z,26.61
2018-05-04T15:09:12.001Z,26.6
2018-05-04T15:09:52.473Z,26.71
2018-05-04T15:10:32.885Z,26.75
2018-05-04T15:11:14.477Z,26.78
2018-05-04T15:11:55.108Z,26.83
2018-05-04T15:12:35.716Z,26.86
2018-05-04T15:13:16.153Z,26.83
2018-05-04T15:13:56.768Z,26.81
2018-05-04T15:14:37.298Z,26.75
2018-05-04T15:15:17.920Z,26.81
2018-05-04T15:15:58.553Z,26.81
2018-05-04T15:28:06.088Z,26.51
2018-05-04T15:28:46.675Z,26.5
2018-05-04T15:29:27.329Z,26.46
2018-05-04T15:30:07.487Z,26.35
2018-05-04T15:30:47.939Z,26.28
2018-05-04T15:31:28.432Z,26.27
2018-05-04T15:32:10.115Z,26.32
2018-05-04T15:32:50.513Z,26.36
2018-05-04T15:33:31.109Z,26.28
2018-05-04T15:34:11.738Z,26.29
2018-05-04T15:34:52.531Z,26.28
2018-05-04T15:35:33.439Z,26.24
2018-05-04T15:36:14.625Z,26.23
2018-05-04T15:36:54.684Z,26.29
2018-05-04T15:37:35.032Z,26.23
2018-05-04T15:38:15.664Z,26.24
2018-05-04T15:38:56.357Z,26.21
2018-05-04T15:39:37.133Z,26.24
2018-05-04T15:40:17.528Z,26.12
2018-05-04T15:40:58.221Z,26.03
2018-05-04T15:41:38.562Z,25.94
2018-05-04T15:42:19.116Z,25.97
2018-05-04T15:43:00.035Z,25.85
2018-05-04T15:43:40.419Z,25.71
2018-05-04T15:44:21.720Z,25.71
2018-05-04T15:45:02.538Z,25.71
2018-05-04T15:45:45.854Z,25.67
2018-05-04T15:46:26.323Z,25.71
2018-05-04T15:47:06.856Z,25.71
2018-05-04T15:47:47.313Z,25.66